createdAt,value
2019-01-24T00:01:05.862Z,-0.70
2019-01-24T00:03:38.294Z,-0.80
2019-01-24T00:06:10.857Z,-0.70
2019-01-24T00:08:43.098Z,-0.80
2019-01-24T00:11:15.266Z,-0.70
2019-01-24T00:13:47.487Z,-0.70
2019-01-24T00:16:19.864Z,-0.80
2019-01-24T00:18:52.139Z,-0.90
2019-01-24T00:21:24.254Z,-0.90
2019-01-24T00:23:56.489Z,-0.90
2019-01-24T00:26:28.729Z,-1.10
2019-01-24T00:29:00.942Z,-1.00
2019-01-24T00:31:33.048Z,-1.00
2019-01-24T00:34:05.346Z,-0.80
2019-01-24T00:36:37.360Z,-0.80
2019-01-24T00:39:09.582Z,-0.70
2019-01-24T00:41:41.852Z,-0.70
2019-01-24T00:44:13.947Z,-0.70
2019-01-24T00:46:45.982Z,-0.70
2019-01-24T00:49:18.065Z,-0.90
2019-01-24T00:51:50.259Z,-0.70
2019-01-24T00:54:22.245Z,-0.60
2019-01-24T00:56:54.258Z,-0.60
2019-01-24T00:59:26.520Z,-0.70
2019-01-24T01:01:58.744Z,-0.60
2019-01-24T01:04:30.968Z,-0.80
2019-01-24T01:07:03.804Z,-0.70
2019-01-24T01:09:35.902Z,-0.90
2019-01-24T01:12:08.154Z,-0.70
2019-01-24T01:14:40.139Z,-0.70
2019-01-24T01:17:13.397Z,-0.60
2019-01-24T01:19:45.365Z,-0.60
2019-01-24T01:22:17.381Z,-0.80
2019-01-24T01:24:49.705Z,-0.80
2019-01-24T01:27:21.943Z,-1.10
2019-01-24T01:29:54.124Z,-1.00
2019-01-24T01:32:26.383Z,-1.10
2019-01-24T01:34:58.455Z,-0.90
2019-01-24T01:37:30.596Z,-0.90
2019-01-24T01:40:04.563Z,-0.70
2019-01-24T01:42:36.685Z,-0.70
2019-01-24T01:45:11.589Z,-0.80
2019-01-24T01:47:43.887Z,-0.80
2019-01-24T01:50:18.496Z,-0.70
2019-01-24T01:52:50.702Z,-0.70
2019-01-24T01:55:22.931Z,-0.90
2019-01-24T01:57:55.090Z,-0.70
2019-01-24T02:00:27.243Z,-0.80
2019-01-24T02:02:59.693Z,-0.80
2019-01-24T02:05:31.932Z,-0.90
2019-01-24T02:08:04.134Z,-0.70
2019-01-24T02:10:36.358Z,-0.90
2019-01-24T02:13:08.474Z,-0.80
2019-01-24T02:15:40.570Z,-0.80
2019-01-24T02:18:13.864Z,-1.10
2019-01-24T02:20:46.032Z,-0.90
2019-01-24T02:23:18.354Z,-0.70
2019-01-24T02:25:50.913Z,-0.80
2019-01-24T02:28:23.036Z,-0.70
2019-01-24T02:30:55.155Z,-0.60
2019-01-24T02:33:27.464Z,-0.50
2019-01-24T02:35:59.699Z,-0.60
2019-01-24T02:38:31.725Z,-0.80
2019-01-24T02:41:04.019Z,-0.60
2019-01-24T02:43:36.301Z,-0.80
2019-01-24T02:46:08.601Z,-0.70
2019-01-24T02:48:40.817Z,-0.70
2019-01-24T02:51:13.059Z,-0.60
2019-01-24T02:53:45.163Z,-0.70
2019-01-24T02:56:17.246Z,-0.70
2019-01-24T02:58:49.356Z,-0.50
2019-01-24T03:01:21.622Z,-0.50
2019-01-24T03:03:53.710Z,-0.60
2019-01-24T03:06:25.930Z,-0.60
2019-01-24T03:08:58.131Z,-0.60
2019-01-24T03:11:30.380Z,-0.60
2019-01-24T03:14:02.567Z,-0.50
2019-01-24T03:16:34.831Z,-0.70
2019-01-24T03:19:07.063Z,-0.70
2019-01-24T03:21:39.210Z,-0.60
2019-01-24T03:24:11.423Z,-0.50
2019-01-24T03:26:43.572Z,-0.50
2019-01-24T03:29:15.574Z,-0.70
2019-01-24T03:31:47.806Z,-0.70
2019-01-24T03:34:19.907Z,-0.60
2019-01-24T03:36:52.050Z,-0.70
2019-01-24T03:39:24.358Z,-0.80
2019-01-24T03:41:56.372Z,-0.90
2019-01-24T03:44:28.425Z,-0.90
2019-01-24T03:47:00.538Z,-1.00
2019-01-24T03:49:32.950Z,-1.10
2019-01-24T03:52:05.131Z,-0.90
2019-01-24T03:54:37.219Z,-0.90
2019-01-24T03:57:09.361Z,-0.80
2019-01-24T03:59:41.714Z,-0.60
2019-01-24T04:02:13.937Z,-0.70
2019-01-24T04:04:46.149Z,-0.70
2019-01-24T04:11:03.421Z,-0.70
2019-01-24T04:13:35.643Z,-0.80
2019-01-24T04:16:08.459Z,-0.60
2019-01-24T04:18:40.626Z,-0.90
2019-01-24T04:21:12.738Z,-0.90
2019-01-24T04:23:45.046Z,-1.00
2019-01-24T04:26:17.135Z,-1.00
2019-01-24T04:28:49.654Z,-1.10
2019-01-24T04:31:21.746Z,-0.90
2019-01-24T04:33:53.880Z,-0.60
2019-01-24T04:36:26.403Z,-0.70
2019-01-24T04:38:58.543Z,-0.80
2019-01-24T04:41:31.225Z,-0.90
2019-01-24T04:44:04.439Z,-0.90
2019-01-24T04:46:36.608Z,-0.80
2019-01-24T04:49:08.885Z,-0.70
2019-01-24T04:51:40.870Z,-0.70
2019-01-24T04:54:12.980Z,-0.80
2019-01-24T04:56:45.185Z,-0.60
2019-01-24T04:59:17.178Z,-0.80
2019-01-24T05:01:49.289Z,-0.70
2019-01-24T05:04:21.381Z,-0.80
2019-01-24T05:06:53.919Z,-0.80
2019-01-24T05:09:26.156Z,-0.90
2019-01-24T05:11:58.461Z,-0.90
2019-01-24T05:14:30.941Z,-0.80
2019-01-24T05:17:03.151Z,-0.60
2019-01-24T05:19:35.156Z,-0.80
2019-01-24T05:22:07.317Z,-0.70
2019-01-24T05:24:39.427Z,-0.70
2019-01-24T05:27:11.668Z,-0.70
2019-01-24T05:29:43.652Z,-0.70
2019-01-24T05:32:16.179Z,-0.80
2019-01-24T05:34:48.436Z,-0.80
2019-01-24T05:37:20.738Z,-0.90
2019-01-24T05:39:52.740Z,-0.80
2019-01-24T05:42:24.918Z,-1.10
2019-01-24T05:44:57.291Z,-1.10
2019-01-24T05:47:29.317Z,-1.00
2019-01-24T05:50:01.586Z,-1.00
2019-01-24T05:52:33.840Z,-1.20
2019-01-24T05:55:06.811Z,-1.00
2019-01-24T05:57:39.039Z,-0.90
2019-01-24T06:00:15.452Z,-1.00
2019-01-24T06:02:47.718Z,-1.00
2019-01-24T06:05:20.718Z,-0.90
2019-01-24T06:07:52.987Z,-1.00
2019-01-24T06:10:25.109Z,-1.20
2019-01-24T06:12:57.243Z,-1.30
2019-01-24T06:15:29.385Z,-1.30
2019-01-24T06:18:02.426Z,-1.30
2019-01-24T06:20:34.518Z,-1.10
2019-01-24T06:23:07.135Z,-1.00
2019-01-24T06:25:39.306Z,-1.00
2019-01-24T06:28:12.086Z,-1.10
2019-01-24T06:30:44.346Z,-1.10
2019-01-24T06:33:16.642Z,-1.00
2019-01-24T06:35:49.118Z,-1.00
2019-01-24T06:38:21.178Z,-1.10
2019-01-24T06:40:53.234Z,-1.00
2019-01-24T06:43:25.471Z,-1.00
2019-01-24T06:45:57.876Z,-0.90
2019-01-24T06:48:29.904Z,-0.60
2019-01-24T06:51:02.279Z,-0.80
2019-01-24T06:53:34.280Z,-0.90
2019-01-24T06:56:06.532Z,-0.90
2019-01-24T06:58:38.613Z,-0.80
2019-01-24T07:01:10.926Z,-1.00
2019-01-24T07:03:43.331Z,-1.10
2019-01-24T07:06:15.447Z,-1.00
2019-01-24T07:08:47.693Z,-1.00
2019-01-24T07:11:20.132Z,-1.00
2019-01-24T07:13:52.544Z,-1.10
2019-01-24T07:16:24.688Z,-1.00
2019-01-24T07:18:56.928Z,-1.10
2019-01-24T07:21:29.212Z,-1.00
2019-01-24T07:24:02.505Z,-1.20
2019-01-24T07:26:55.207Z,-1.20
2019-01-24T07:29:31.070Z,-1.30
2019-01-24T07:32:09.396Z,-1.10
2019-01-24T07:34:41.484Z,-1.00
2019-01-24T07:37:13.489Z,-1.00
2019-01-24T07:39:45.500Z,-1.00
2019-01-24T07:42:17.642Z,-1.00
2019-01-24T07:44:50.043Z,-0.90
2019-01-24T07:47:22.362Z,-0.90
2019-01-24T07:49:56.787Z,-0.90
2019-01-24T07:52:29.045Z,-1.10
2019-01-24T07:55:01.141Z,-1.10
2019-01-24T07:57:35.317Z,-1.20
2019-01-24T08:00:11.725Z,-1.20
2019-01-24T08:02:52.817Z,-1.10
2019-01-24T08:05:26.087Z,-1.30
2019-01-24T08:08:00.522Z,-1.20
2019-01-24T08:10:32.665Z,-1.10
2019-01-24T08:13:05.176Z,-1.30
2019-01-24T08:15:37.656Z,-1.30
2019-01-24T08:18:10.365Z,-1.10
2019-01-24T08:20:45.653Z,-1.20
2019-01-24T08:23:19.050Z,-1.10
2019-01-24T08:25:51.445Z,-0.90
2019-01-24T08:28:23.735Z,-1.00
2019-01-24T08:30:56.188Z,-0.90
2019-01-24T08:33:28.360Z,-1.00
2019-01-24T08:36:00.796Z,-1.00
2019-01-24T08:38:33.101Z,-0.90
2019-01-24T08:41:05.347Z,-1.20
2019-01-24T08:43:37.384Z,-1.20
2019-01-24T08:46:09.484Z,-1.00
2019-01-24T08:48:41.728Z,-1.00
2019-01-24T08:51:14.297Z,-0.90
2019-01-24T08:53:46.581Z,-1.30
2019-01-24T08:56:18.915Z,-1.00
2019-01-24T08:58:55.360Z,-1.00
2019-01-24T09:01:28.206Z,-1.10
2019-01-24T09:04:00.629Z,-1.10
2019-01-24T09:06:33.121Z,-1.10
2019-01-24T09:09:07.858Z,-1.10
2019-01-24T09:11:40.222Z,-1.10
2019-01-24T09:14:12.422Z,-1.10
2019-01-24T09:16:44.525Z,-1.20
2019-01-24T09:19:16.537Z,-1.20
2019-01-24T09:21:48.819Z,-1.00
2019-01-24T09:24:21.478Z,-1.00
2019-01-24T09:26:53.619Z,-1.10
2019-01-24T09:29:25.773Z,-1.10
2019-01-24T09:31:57.933Z,-1.10
2019-01-24T09:34:35.470Z,-1.00
2019-01-24T09:37:07.837Z,-1.00
2019-01-24T09:39:40.172Z,-0.90
2019-01-24T09:42:12.686Z,-1.00
2019-01-24T09:44:45.050Z,-0.80
2019-01-24T09:47:17.394Z,-0.80
2019-01-24T09:49:49.904Z,-0.90
2019-01-24T09:52:22.209Z,-0.90
2019-01-24T09:54:54.440Z,-0.80
2019-01-24T09:57:27.104Z,-0.90
2019-01-24T09:59:59.377Z,-1.10
2019-01-24T10:02:31.781Z,-1.20
2019-01-24T10:05:05.824Z,-1.20
2019-01-24T10:07:37.988Z,-1.20
2019-01-24T10:10:15.727Z,-1.10
2019-01-24T10:12:48.028Z,-1.00
2019-01-24T10:15:20.473Z,-0.90
2019-01-24T10:17:52.855Z,-1.00
2019-01-24T10:20:25.808Z,-0.80
2019-01-24T10:22:58.073Z,-1.20
2019-01-24T10:25:33.011Z,-1.00
2019-01-24T10:28:05.720Z,-0.80
2019-01-24T10:30:42.816Z,-0.90
2019-01-24T10:33:12.529Z,-1.10
2019-01-24T10:35:45.466Z,-1.20
2019-01-24T10:38:17.896Z,-1.20
2019-01-24T10:40:50.107Z,-1.20
2019-01-24T10:43:22.528Z,-1.10
2019-01-24T10:45:54.647Z,-1.20
2019-01-24T10:48:27.175Z,-1.00
2019-01-24T10:50:59.364Z,-1.00
2019-01-24T10:53:31.651Z,-1.00
2019-01-24T10:56:04.139Z,-0.90
2019-01-24T10:58:40.702Z,-0.90
2019-01-24T11:01:12.898Z,-1.00
2019-01-24T11:03:47.914Z,-1.10
2019-01-24T11:06:24.963Z,-1.00
2019-01-24T11:08:57.458Z,-1.10
2019-01-24T11:11:29.649Z,-1.10
2019-01-24T11:14:02.108Z,-1.10
2019-01-24T11:16:36.858Z,-1.30
2019-01-24T11:19:09.417Z,-1.20
2019-01-24T11:21:41.762Z,-1.10
2019-01-24T11:24:13.991Z,-1.00
2019-01-24T11:26:46.312Z,-0.90
2019-01-24T11:29:18.733Z,-1.10
2019-01-24T11:31:51.207Z,-1.50
2019-01-24T11:34:24.066Z,-1.40
2019-01-24T11:36:57.109Z,-1.20
2019-01-24T11:39:29.589Z,-1.40
2019-01-24T11:42:02.270Z,-1.40
2019-01-24T11:44:36.091Z,-1.50
2019-01-24T11:47:09.427Z,-1.70
2019-01-24T11:49:41.905Z,-1.70
2019-01-24T11:52:14.037Z,-1.60
2019-01-24T11:54:46.189Z,-1.70
2019-01-24T11:57:18.405Z,-2.00
2019-01-24T11:59:50.821Z,-1.90
2019-01-24T12:02:23.689Z,-1.90
2019-01-24T12:04:56.561Z,-1.90
2019-01-24T12:07:28.885Z,-1.80
2019-01-24T12:10:01.369Z,-1.90
2019-01-24T12:12:34.212Z,-2.00
2019-01-24T12:15:08.593Z,-1.80
2019-01-24T12:17:40.950Z,-1.90
2019-01-24T12:20:15.812Z,-1.90
2019-01-24T12:22:48.052Z,-1.90
2019-01-24T12:25:20.418Z,-1.90
2019-01-24T12:27:53.321Z,-1.90
2019-01-24T12:30:27.431Z,-1.90
2019-01-24T12:32:59.863Z,-1.90
2019-01-24T12:35:32.160Z,-1.90
2019-01-24T12:38:04.880Z,-1.70
2019-01-24T12:40:37.114Z,-1.70
2019-01-24T12:43:09.263Z,-1.70
2019-01-24T12:45:42.263Z,-1.70
2019-01-24T12:48:14.621Z,-1.70
2019-01-24T12:50:47.075Z,-1.80
2019-01-24T12:53:19.213Z,-1.80
2019-01-24T12:55:51.428Z,-1.70
2019-01-24T12:58:23.964Z,-1.60
2019-01-24T13:00:55.986Z,-1.60
2019-01-24T13:03:28.561Z,-1.60
2019-01-24T13:06:00.918Z,-1.50
2019-01-24T13:08:33.141Z,-1.60
2019-01-24T13:11:05.395Z,-1.60
2019-01-24T13:13:37.636Z,-1.70
2019-01-24T13:16:10.107Z,-1.70
2019-01-24T13:18:42.377Z,-2.00
2019-01-24T13:21:14.577Z,-1.80
2019-01-24T13:23:46.869Z,-1.60
2019-01-24T13:26:19.272Z,-1.60
2019-01-24T13:28:51.578Z,-1.70
2019-01-24T13:31:23.859Z,-1.80
2019-01-24T13:33:56.204Z,-1.70
2019-01-24T13:36:28.368Z,-1.60
2019-01-24T13:39:00.486Z,-1.70
2019-01-24T13:41:32.781Z,-1.60
2019-01-24T13:44:05.345Z,-1.70
2019-01-24T13:46:37.578Z,-1.70
2019-01-24T13:49:09.746Z,-1.80
2019-01-24T13:51:42.638Z,-1.80
2019-01-24T13:54:14.943Z,-1.90
2019-01-24T13:56:47.327Z,-1.70
2019-01-24T13:59:19.491Z,-1.70
2019-01-24T14:01:51.726Z,-1.50
2019-01-24T14:04:29.115Z,-1.40
2019-01-24T14:07:01.389Z,-1.20
2019-01-24T14:09:33.530Z,-1.30
2019-01-24T14:12:06.101Z,-1.20
2019-01-24T14:14:38.290Z,-1.40
2019-01-24T14:17:10.697Z,-1.60
2019-01-24T14:19:43.511Z,-1.40
2019-01-24T14:22:16.223Z,-1.50
2019-01-24T14:24:48.635Z,-1.50
2019-01-24T14:27:20.874Z,-1.60
2019-01-24T14:29:53.533Z,-1.70
2019-01-24T14:32:26.632Z,-1.70
2019-01-24T14:34:59.013Z,-1.60
2019-01-24T14:37:31.383Z,-1.60
2019-01-24T14:40:06.255Z,-1.50
2019-01-24T14:42:38.594Z,-1.50
2019-01-24T14:45:13.571Z,-1.50
2019-01-24T14:47:46.346Z,-1.60
2019-01-24T14:50:20.623Z,-1.50
2019-01-24T14:52:53.007Z,-1.40
2019-01-24T14:55:25.477Z,-1.20
2019-01-24T14:57:58.141Z,-1.20
2019-01-24T15:00:32.889Z,-1.30
2019-01-24T15:03:05.630Z,-1.50
2019-01-24T15:05:38.180Z,-1.10
2019-01-24T15:08:10.707Z,-1.10
2019-01-24T15:10:43.004Z,-1.30
2019-01-24T15:13:17.459Z,-1.30
2019-01-24T15:15:49.991Z,-1.30
2019-01-24T15:18:24.066Z,-1.30
2019-01-24T15:20:56.634Z,-1.30
2019-01-24T15:23:29.045Z,-1.40
2019-01-24T15:26:01.256Z,-1.60
2019-01-24T15:28:35.119Z,-1.20
2019-01-24T15:31:07.401Z,-1.30
2019-01-24T15:33:39.924Z,-1.20
2019-01-24T15:36:13.365Z,-1.20
2019-01-24T15:38:45.629Z,-1.50
2019-01-24T15:41:17.929Z,-1.30
2019-01-24T15:43:50.393Z,-1.40
2019-01-24T15:46:22.577Z,-1.10
2019-01-24T15:48:55.034Z,-1.00
2019-01-24T15:51:27.609Z,-1.20
2019-01-24T15:53:59.941Z,-1.30
2019-01-24T15:56:33.157Z,-1.10
2019-01-24T15:59:05.590Z,-1.20
2019-01-24T16:01:38.230Z,-1.20
2019-01-24T16:04:10.406Z,-1.20
2019-01-24T16:06:43.324Z,-1.40
2019-01-24T16:09:15.784Z,-1.30
2019-01-24T16:11:48.157Z,-1.20
2019-01-24T16:14:20.365Z,-1.10
2019-01-24T16:16:52.536Z,-1.10
2019-01-24T16:19:24.908Z,-1.10
2019-01-24T16:21:57.057Z,-1.20
2019-01-24T16:24:29.627Z,-1.20
2019-01-24T16:27:02.143Z,-1.10
2019-01-24T16:29:34.571Z,-1.20
2019-01-24T16:32:06.994Z,-1.20
2019-01-24T16:34:39.491Z,-1.10
2019-01-24T16:37:12.000Z,-1.00
2019-01-24T16:39:49.412Z,-1.00
2019-01-24T16:42:22.623Z,-1.20
2019-01-24T16:44:54.977Z,-1.40
2019-01-24T16:47:27.468Z,-1.40
2019-01-24T16:49:59.778Z,-1.20
2019-01-24T16:52:32.003Z,-1.40
2019-01-24T16:55:05.639Z,-1.30
2019-01-24T16:57:38.028Z,-1.50
2019-01-24T17:00:14.994Z,-1.30
2019-01-24T17:02:47.509Z,-1.30
2019-01-24T17:05:19.770Z,-1.30
2019-01-24T17:07:52.020Z,-1.40
2019-01-24T17:10:25.292Z,-1.40
2019-01-24T17:12:57.968Z,-1.30
2019-01-24T17:15:31.889Z,-1.30
2019-01-24T17:18:04.530Z,-1.20
2019-01-24T17:20:37.000Z,-1.20
2019-01-24T17:23:09.269Z,-1.40
2019-01-24T17:25:41.502Z,-1.30
2019-01-24T17:28:13.538Z,-1.20
2019-01-24T17:30:45.818Z,-1.50
2019-01-24T17:33:18.084Z,-1.50
2019-01-24T17:35:50.338Z,-1.40
2019-01-24T17:38:23.806Z,-1.30
2019-01-24T17:40:56.328Z,-1.50
2019-01-24T17:43:28.600Z,-1.40
2019-01-24T17:46:00.861Z,-1.40
2019-01-24T17:48:33.058Z,-1.30
2019-01-24T17:51:05.522Z,-1.40
2019-01-24T17:53:38.391Z,-1.30
2019-01-24T17:56:11.106Z,-1.50
2019-01-24T17:58:43.505Z,-1.10
2019-01-24T18:01:16.055Z,-1.20
2019-01-24T18:03:48.283Z,-1.20
2019-01-24T18:06:20.773Z,-1.30
2019-01-24T18:08:53.913Z,-1.40
2019-01-24T18:11:26.185Z,-1.30
2019-01-24T18:13:58.459Z,-1.40
2019-01-24T18:16:31.106Z,-1.30
2019-01-24T18:19:03.778Z,-1.30
2019-01-24T18:21:36.048Z,-1.30
2019-01-24T18:24:08.253Z,-1.40
2019-01-24T18:26:40.685Z,-1.20
2019-01-24T18:29:13.164Z,-1.50
2019-01-24T18:31:45.568Z,-1.50
2019-01-24T18:34:17.781Z,-1.40
2019-01-24T18:36:50.053Z,-1.50
2019-01-24T18:39:22.432Z,-1.50
2019-01-24T18:41:54.573Z,-1.40
2019-01-24T18:44:26.876Z,-1.50
2019-01-24T18:46:59.379Z,-1.40
2019-01-24T18:49:31.759Z,-1.30
2019-01-24T18:52:04.681Z,-1.30
2019-01-24T18:54:37.066Z,-1.40
2019-01-24T18:57:09.370Z,-1.50
2019-01-24T18:59:42.093Z,-1.50
2019-01-24T19:02:14.589Z,-1.60
2019-01-24T19:04:46.942Z,-1.50
2019-01-24T19:07:19.450Z,-1.50
2019-01-24T19:09:51.931Z,-1.40
2019-01-24T19:12:24.148Z,-1.50
2019-01-24T19:14:56.317Z,-1.50
2019-01-24T19:17:28.670Z,-1.40
2019-01-24T19:20:00.757Z,-1.30
2019-01-24T19:22:32.967Z,-1.30
2019-01-24T19:25:06.194Z,-1.30
2019-01-24T19:27:38.905Z,-1.10
2019-01-24T19:30:17.521Z,-1.20
2019-01-24T19:32:49.786Z,-1.20
2019-01-24T19:35:22.116Z,-1.30
2019-01-24T19:37:54.382Z,-1.30
2019-01-24T19:40:26.861Z,-1.10
2019-01-24T19:43:00.883Z,-1.30
2019-01-24T19:45:33.320Z,-1.40
2019-01-24T19:48:05.830Z,-1.30
2019-01-24T19:50:38.315Z,-1.10
2019-01-24T19:53:10.466Z,-1.40
2019-01-24T19:55:42.683Z,-1.30
2019-01-24T19:58:15.097Z,-1.40
2019-01-24T20:00:47.558Z,-1.50
2019-01-24T20:03:20.058Z,-1.70
2019-01-24T20:05:52.154Z,-1.70
2019-01-24T20:08:24.352Z,-1.70
2019-01-24T20:10:56.698Z,-1.70
2019-01-24T20:13:28.712Z,-1.40
2019-01-24T20:16:01.020Z,-1.60
2019-01-24T20:18:33.362Z,-1.80
2019-01-24T20:21:05.861Z,-1.70
2019-01-24T20:23:38.267Z,-1.40
2019-01-24T20:26:10.522Z,-1.30
2019-01-24T20:28:42.627Z,-1.40
2019-01-24T20:31:14.761Z,-1.70
2019-01-24T20:33:47.248Z,-1.50
2019-01-24T20:36:19.502Z,-1.20
2019-01-24T20:38:51.955Z,-1.30
2019-01-24T20:41:24.597Z,-1.60
2019-01-24T20:43:57.067Z,-1.50
2019-01-24T20:46:29.343Z,-1.50
2019-01-24T20:49:01.609Z,-1.20
2019-01-24T20:51:33.716Z,-1.40
2019-01-24T20:54:05.908Z,-1.30
2019-01-24T20:56:38.331Z,-1.30
2019-01-24T20:59:10.569Z,-1.30
2019-01-24T21:01:43.903Z,-0.90
2019-01-24T21:04:16.296Z,-0.60
2019-01-24T21:06:49.079Z,-0.70
2019-01-24T21:09:22.911Z,-0.90
2019-01-24T21:11:55.601Z,-1.20
2019-01-24T21:14:27.801Z,-1.10
2019-01-24T21:17:00.139Z,-1.00
2019-01-24T21:19:32.536Z,-1.20
2019-01-24T21:22:05.180Z,-1.20
2019-01-24T21:24:37.702Z,-1.40
2019-01-24T21:27:10.480Z,-1.30
2019-01-24T21:29:43.007Z,-1.50
2019-01-24T21:32:15.309Z,-1.50
2019-01-24T21:34:47.645Z,-1.40
2019-01-24T21:37:19.833Z,-1.20
2019-01-24T21:39:52.531Z,-1.30
2019-01-24T21:42:24.988Z,-1.30
2019-01-24T21:44:57.078Z,-1.50
2019-01-24T21:47:30.174Z,-1.50
2019-01-24T21:50:03.235Z,-1.50
2019-01-24T21:52:35.558Z,-1.50
2019-01-24T21:55:07.982Z,-1.20
2019-01-24T21:57:40.269Z,-1.00
2019-01-24T22:00:14.822Z,-1.10
2019-01-24T22:02:47.176Z,-1.60
2019-01-24T22:05:19.925Z,-1.50
2019-01-24T22:07:52.412Z,-1.20
2019-01-24T22:10:25.783Z,-1.10
2019-01-24T22:12:58.393Z,-0.90
2019-01-24T22:15:30.611Z,-0.90
2019-01-24T22:18:03.188Z,-1.10
2019-01-24T22:20:35.559Z,-1.30
2019-01-24T22:23:07.927Z,-1.50
2019-01-24T22:25:40.182Z,-1.40
2019-01-24T22:28:12.795Z,-1.20
2019-01-24T22:30:50.152Z,-1.30
2019-01-24T22:33:22.220Z,-1.40
2019-01-24T22:35:54.297Z,-1.60
2019-01-24T22:38:26.458Z,-1.30
2019-01-24T22:40:58.578Z,-1.40
2019-01-24T22:43:30.806Z,-1.30
2019-01-24T22:46:03.652Z,-1.50
2019-01-24T22:48:35.921Z,-1.50
2019-01-24T22:51:08.142Z,-1.40
2019-01-24T22:53:40.626Z,-1.40
2019-01-24T22:56:15.134Z,-1.10
2019-01-24T22:58:47.359Z,-1.00
2019-01-24T23:01:52.747Z,-1.10
2019-01-24T23:04:25.482Z,-1.30
2019-01-24T23:06:57.717Z,-1.30
2019-01-24T23:09:29.797Z,-1.20
2019-01-24T23:12:02.239Z,-1.40
2019-01-24T23:14:34.609Z,-1.30
2019-01-24T23:17:07.001Z,-1.40
2019-01-24T23:19:39.256Z,-1.30
2019-01-24T23:22:11.464Z,-1.40
2019-01-24T23:24:43.530Z,-1.70
2019-01-24T23:27:15.754Z,-1.50
2019-01-24T23:29:47.944Z,-1.40
2019-01-24T23:32:20.134Z,-1.90
2019-01-24T23:34:52.464Z,-1.60
2019-01-24T23:37:24.673Z,-1.50
2019-01-24T23:39:57.752Z,-1.50
2019-01-24T23:42:30.301Z,-1.30
2019-01-24T23:45:03.068Z,-0.90
2019-01-24T23:47:35.303Z,-1.00
2019-01-24T23:50:07.883Z,-1.40
2019-01-24T23:52:39.995Z,-1.40
2019-01-24T23:55:12.265Z,-1.60
2019-01-24T23:57:44.805Z,-1.50
